sensor_id;sensor_type;location;lat;lon;timestamp;pressure;altitude;pressure_sealevel;temperature;humidity
73151;BME280;61354;50.758;6.106;2024-02-21T00:02:43;99858.69;;;10.11;86.91
73151;BME280;61354;50.758;6.106;2024-02-21T00:05:27;99850.00;;;9.91;88.22
73151;BME280;61354;50.758;6.106;2024-02-21T00:08:11;99845.19;;;10.30;86.92
73151;BME280;61354;50.758;6.106;2024-02-21T00:10:55;99843.53;;;10.08;87.54
73151;BME280;61354;50.758;6.106;2024-02-21T00:13:39;99830.78;;;10.07;87.75
73151;BME280;61354;50.758;6.106;2024-02-21T00:16:23;99823.63;;;10.06;88.02
73151;BME280;61354;50.758;6.106;2024-02-21T00:19:07;99815.09;;;10.11;87.21
73151;BME280;61354;50.758;6.106;2024-02-21T00:21:51;99814.03;;;10.45;86.02
73151;BME280;61354;50.758;6.106;2024-02-21T00:24:35;99822.00;;;10.05;88.27
73151;BME280;61354;50.758;6.106;2024-02-21T00:27:19;99819.56;;;10.04;88.56
73151;BME280;61354;50.758;6.106;2024-02-21T00:30:03;99813.00;;;10.08;88.91
73151;BME280;61354;50.758;6.106;2024-02-21T00:32:47;99816.13;;;10.28;87.70
73151;BME280;61354;50.758;6.106;2024-02-21T00:35:31;99821.06;;;10.22;87.49
73151;BME280;61354;50.758;6.106;2024-02-21T00:38:15;99810.63;;;9.98;88.13
73151;BME280;61354;50.758;6.106;2024-02-21T00:41:00;99801.28;;;10.24;88.46
73151;BME280;61354;50.758;6.106;2024-02-21T00:43:44;99791.34;;;10.23;88.08
73151;BME280;61354;50.758;6.106;2024-02-21T00:46:27;99805.75;;;9.95;88.51
73151;BME280;61354;50.758;6.106;2024-02-21T00:49:11;99794.41;;;10.30;87.90
73151;BME280;61354;50.758;6.106;2024-02-21T00:51:55;99799.31;;;10.03;89.00
73151;BME280;61354;50.758;6.106;2024-02-21T00:54:39;99783.38;;;10.00;88.48
73151;BME280;61354;50.758;6.106;2024-02-21T00:57:23;99778.03;;;10.37;87.85
73151;BME280;61354;50.758;6.106;2024-02-21T01:00:07;99773.59;;;10.36;87.62
73151;BME280;61354;50.758;6.106;2024-02-21T01:02:52;99766.88;;;10.16;88.76
73151;BME280;61354;50.758;6.106;2024-02-21T01:05:36;99760.66;;;10.40;87.10
73151;BME280;61354;50.758;6.106;2024-02-21T01:08:20;99758.91;;;10.14;88.71
73151;BME280;61354;50.758;6.106;2024-02-21T01:11:03;99748.75;;;10.18;88.84
73151;BME280;61354;50.758;6.106;2024-02-21T01:13:47;99749.38;;;10.45;86.98
73151;BME280;61354;50.758;6.106;2024-02-21T01:16:32;99741.03;;;10.03;89.02
73151;BME280;61354;50.758;6.106;2024-02-21T01:19:16;99744.81;;;10.19;88.89
73151;BME280;61354;50.758;6.106;2024-02-21T01:22:00;99734.03;;;10.06;88.13
73151;BME280;61354;50.758;6.106;2024-02-21T01:24:44;99737.38;;;10.11;88.99
73151;BME280;61354;50.758;6.106;2024-02-21T01:27:28;99721.03;;;9.98;89.46
73151;BME280;61354;50.758;6.106;2024-02-21T01:30:12;99724.00;;;10.13;89.60
73151;BME280;61354;50.758;6.106;2024-02-21T01:32:56;99722.13;;;10.05;90.67
73151;BME280;61354;50.758;6.106;2024-02-21T01:35:40;99723.72;;;10.27;88.77
73151;BME280;61354;50.758;6.106;2024-02-21T01:38:24;99720.28;;;10.30;88.67
73151;BME280;61354;50.758;6.106;2024-02-21T01:41:08;99713.91;;;10.30;89.50
73151;BME280;61354;50.758;6.106;2024-02-21T01:43:52;99718.00;;;10.24;89.54
73151;BME280;61354;50.758;6.106;2024-02-21T01:46:36;99705.44;;;10.59;88.57
73151;BME280;61354;50.758;6.106;2024-02-21T01:49:21;99707.81;;;10.15;89.61
73151;BME280;61354;50.758;6.106;2024-02-21T01:52:05;99706.25;;;10.27;88.66
73151;BME280;61354;50.758;6.106;2024-02-21T01:54:50;99698.94;;;10.22;89.73
73151;BME280;61354;50.758;6.106;2024-02-21T01:57:34;99697.47;;;10.25;88.93
73151;BME280;61354;50.758;6.106;2024-02-21T02:00:18;99690.81;;;10.38;88.65
73151;BME280;61354;50.758;6.106;2024-02-21T02:03:03;99690.31;;;10.36;89.24
73151;BME280;61354;50.758;6.106;2024-02-21T02:05:49;99680.38;;;10.35;89.14
73151;BME280;61354;50.758;6.106;2024-02-21T02:08:33;99677.41;;;9.86;90.92
73151;BME280;61354;50.758;6.106;2024-02-21T02:11:17;99682.75;;;10.45;88.67
73151;BME280;61354;50.758;6.106;2024-02-21T02:14:02;99678.28;;;10.32;88.25
73151;BME280;61354;50.758;6.106;2024-02-21T02:16:46;99675.66;;;10.14;90.28
73151;BME280;61354;50.758;6.106;2024-02-21T02:19:31;99677.69;;;10.26;90.22
73151;BME280;61354;50.758;6.106;2024-02-21T02:22:21;99672.53;;;10.16;90.25
73151;BME280;61354;50.758;6.106;2024-02-21T02:28:47;99676.97;;;10.62;87.26
73151;BME280;61354;50.758;6.106;2024-02-21T02:31:30;99668.88;;;10.69;86.62
73151;BME280;61354;50.758;6.106;2024-02-21T02:34:14;99663.06;;;10.50;87.62
73151;BME280;61354;50.758;6.106;2024-02-21T02:36:58;99666.44;;;10.80;86.54
73151;BME280;61354;50.758;6.106;2024-02-21T02:39:42;99648.28;;;10.58;86.88
73151;BME280;61354;50.758;6.106;2024-02-21T02:42:26;99650.22;;;10.45;87.64
73151;BME280;61354;50.758;6.106;2024-02-21T02:45:11;99647.13;;;10.72;86.71
73151;BME280;61354;50.758;6.106;2024-02-21T02:47:55;99639.47;;;10.68;86.33
73151;BME280;61354;50.758;6.106;2024-02-21T02:50:41;99636.66;;;10.32;87.85
73151;BME280;61354;50.758;6.106;2024-02-21T02:53:24;99630.78;;;10.33;88.37
73151;BME280;61354;50.758;6.106;2024-02-21T02:56:16;99638.56;;;10.19;89.41
73151;BME280;61354;50.758;6.106;2024-02-21T02:59:00;99623.97;;;10.55;87.77
73151;BME280;61354;50.758;6.106;2024-02-21T03:01:44;99616.44;;;10.68;86.68
73151;BME280;61354;50.758;6.106;2024-02-21T03:04:28;99619.44;;;10.51;87.41
73151;BME280;61354;50.758;6.106;2024-02-21T03:07:12;99616.63;;;10.26;88.72
73151;BME280;61354;50.758;6.106;2024-02-21T03:09:56;99606.13;;;10.44;88.01
73151;BME280;61354;50.758;6.106;2024-02-21T03:12:40;99601.38;;;10.44;87.64
73151;BME280;61354;50.758;6.106;2024-02-21T03:15:24;99594.91;;;10.40;87.49
73151;BME280;61354;50.758;6.106;2024-02-21T03:18:08;99591.31;;;10.40;87.18
73151;BME280;61354;50.758;6.106;2024-02-21T03:20:52;99598.25;;;10.34;87.71
73151;BME280;61354;50.758;6.106;2024-02-21T03:23:36;99596.97;;;10.31;87.28
73151;BME280;61354;50.758;6.106;2024-02-21T03:26:20;99598.97;;;10.67;85.99
73151;BME280;61354;50.758;6.106;2024-02-21T03:29:04;99602.81;;;10.05;87.50
73151;BME280;61354;50.758;6.106;2024-02-21T03:31:48;99608.25;;;10.72;85.35
73151;BME280;61354;50.758;6.106;2024-02-21T03:34:32;99602.56;;;10.10;87.45
73151;BME280;61354;50.758;6.106;2024-02-21T03:37:16;99594.22;;;10.68;85.58
73151;BME280;61354;50.758;6.106;2024-02-21T03:40:00;99596.31;;;10.34;86.84
73151;BME280;61354;50.758;6.106;2024-02-21T03:42:44;99594.91;;;10.40;86.29
73151;BME280;61354;50.758;6.106;2024-02-21T03:45:27;99585.44;;;10.54;84.83
73151;BME280;61354;50.758;6.106;2024-02-21T03:48:11;99583.47;;;10.54;85.47
73151;BME280;61354;50.758;6.106;2024-02-21T03:50:55;99578.84;;;10.46;85.36
73151;BME280;61354;50.758;6.106;2024-02-21T03:53:39;99582.91;;;10.03;86.98
73151;BME280;61354;50.758;6.106;2024-02-21T03:56:23;99575.38;;;10.25;86.61
73151;BME280;61354;50.758;6.106;2024-02-21T03:59:07;99581.78;;;10.16;87.21
73151;BME280;61354;50.758;6.106;2024-02-21T04:01:55;99575.03;;;9.93;88.28
73151;BME280;61354;50.758;6.106;2024-02-21T04:04:43;99569.91;;;10.53;85.94
73151;BME280;61354;50.758;6.106;2024-02-21T04:07:27;99571.66;;;10.33;87.07
73151;BME280;61354;50.758;6.106;2024-02-21T04:10:11;99561.38;;;10.33;86.02
73151;BME280;61354;50.758;6.106;2024-02-21T04:12:56;99563.13;;;10.50;85.77
73151;BME280;61354;50.758;6.106;2024-02-21T04:15:39;99561.25;;;10.30;88.16
73151;BME280;61354;50.758;6.106;2024-02-21T04:18:23;99562.81;;;11.04;83.64
73151;BME280;61354;50.758;6.106;2024-02-21T04:21:13;99566.22;;;10.61;85.27
73151;BME280;61354;50.758;6.106;2024-02-21T04:23:58;99553.25;;;10.28;88.55
73151;BME280;61354;50.758;6.106;2024-02-21T04:26:42;99563.53;;;10.28;88.39
73151;BME280;61354;50.758;6.106;2024-02-21T04:29:27;99557.31;;;10.31;87.67
73151;BME280;61354;50.758;6.106;2024-02-21T04:32:12;99550.34;;;10.12;88.44
73151;BME280;61354;50.758;6.106;2024-02-21T04:34:56;99537.16;;;10.21;88.92
73151;BME280;61354;50.758;6.106;2024-02-21T04:37:40;99549.69;;;10.40;88.05
73151;BME280;61354;50.758;6.106;2024-02-21T04:40:24;99544.19;;;10.19;89.23
73151;BME280;61354;50.758;6.106;2024-02-21T04:43:08;99546.63;;;10.08;90.03
73151;BME280;61354;50.758;6.106;2024-02-21T04:45:52;99543.91;;;10.33;88.83
73151;BME280;61354;50.758;6.106;2024-02-21T04:48:37;99545.59;;;10.13;89.94
73151;BME280;61354;50.758;6.106;2024-02-21T04:51:21;99540.78;;;10.47;88.52
73151;BME280;61354;50.758;6.106;2024-02-21T04:54:05;99545.47;;;10.21;89.72
73151;BME280;61354;50.758;6.106;2024-02-21T04:56:49;99537.44;;;10.41;89.25
73151;BME280;61354;50.758;6.106;2024-02-21T04:59:33;99540.66;;;10.55;88.39
73151;BME280;61354;50.758;6.106;2024-02-21T05:02:19;99532.16;;;10.15;90.40
73151;BME280;61354;50.758;6.106;2024-02-21T05:05:06;99518.94;;;10.45;88.47
73151;BME280;61354;50.758;6.106;2024-02-21T05:07:50;99525.69;;;10.23;90.31
73151;BME280;61354;50.758;6.106;2024-02-21T05:10:34;99530.47;;;10.59;89.00
73151;BME280;61354;50.758;6.106;2024-02-21T05:13:18;99519.63;;;10.30;90.10
73151;BME280;61354;50.758;6.106;2024-02-21T05:16:02;99515.56;;;10.39;89.27
73151;BME280;61354;50.758;6.106;2024-02-21T05:18:46;99519.91;;;9.91;90.65
73151;BME280;61354;50.758;6.106;2024-02-21T05:21:30;99513.94;;;10.38;90.30
73151;BME280;61354;50.758;6.106;2024-02-21T05:24:14;99517.38;;;10.23;90.61
73151;BME280;61354;50.758;6.106;2024-02-21T05:26:58;99506.66;;;10.34;90.82
73151;BME280;61354;50.758;6.106;2024-02-21T05:29:42;99496.22;;;10.55;89.65
73151;BME280;61354;50.758;6.106;2024-02-21T05:32:26;99499.47;;;10.20;90.31
73151;BME280;61354;50.758;6.106;2024-02-21T05:35:10;99495.06;;;10.19;89.77
73151;BME280;61354;50.758;6.106;2024-02-21T05:37:54;99495.97;;;10.11;89.51
73151;BME280;61354;50.758;6.106;2024-02-21T05:40:38;99485.34;;;10.13;89.67
73151;BME280;61354;50.758;6.106;2024-02-21T05:43:23;99484.53;;;10.74;87.67
73151;BME280;61354;50.758;6.106;2024-02-21T05:46:07;99484.06;;;10.23;87.76
73151;BME280;61354;50.758;6.106;2024-02-21T05:48:51;99476.22;;;10.50;88.02
73151;BME280;61354;50.758;6.106;2024-02-21T05:51:35;99465.88;;;10.75;87.00
73151;BME280;61354;50.758;6.106;2024-02-21T05:54:19;99473.56;;;10.93;85.61
73151;BME280;61354;50.758;6.106;2024-02-21T05:57:03;99468.91;;;10.57;87.06
73151;BME280;61354;50.758;6.106;2024-02-21T05:59:47;99458.97;;;10.56;86.35
73151;BME280;61354;50.758;6.106;2024-02-21T06:02:31;99466.06;;;10.41;88.17
73151;BME280;61354;50.758;6.106;2024-02-21T06:05:15;99469.16;;;10.40;87.70
73151;BME280;61354;50.758;6.106;2024-02-21T06:07:58;99465.31;;;10.57;87.68
73151;BME280;61354;50.758;6.106;2024-02-21T06:10:43;99472.88;;;10.97;85.58
73151;BME280;61354;50.758;6.106;2024-02-21T06:13:27;99474.00;;;10.67;86.33
73151;BME280;61354;50.758;6.106;2024-02-21T06:16:11;99467.38;;;10.72;86.17
73151;BME280;61354;50.758;6.106;2024-02-21T06:18:55;99459.22;;;10.39;88.86
73151;BME280;61354;50.758;6.106;2024-02-21T06:21:39;99476.56;;;10.60;86.88
73151;BME280;61354;50.758;6.106;2024-02-21T06:24:23;99473.09;;;10.51;86.24
73151;BME280;61354;50.758;6.106;2024-02-21T06:27:07;99472.16;;;10.59;87.85
73151;BME280;61354;50.758;6.106;2024-02-21T06:29:51;99469.91;;;10.25;88.08
73151;BME280;61354;50.758;6.106;2024-02-21T06:32:34;99465.47;;;10.36;87.86
73151;BME280;61354;50.758;6.106;2024-02-21T06:35:18;99458.16;;;10.56;86.89
73151;BME280;61354;50.758;6.106;2024-02-21T06:38:03;99456.91;;;10.04;87.88
73151;BME280;61354;50.758;6.106;2024-02-21T06:40:47;99457.13;;;10.24;87.46
73151;BME280;61354;50.758;6.106;2024-02-21T06:43:33;99455.50;;;10.23;87.59
73151;BME280;61354;50.758;6.106;2024-02-21T06:46:27;99453.25;;;10.25;87.62
73151;BME280;61354;50.758;6.106;2024-02-21T06:49:12;99446.38;;;10.59;86.46
73151;BME280;61354;50.758;6.106;2024-02-21T06:51:59;99441.91;;;10.30;86.43
73151;BME280;61354;50.758;6.106;2024-02-21T06:54:43;99439.78;;;10.51;86.33
73151;BME280;61354;50.758;6.106;2024-02-21T06:57:29;99450.66;;;10.44;85.42
73151;BME280;61354;50.758;6.106;2024-02-21T07:00:13;99443.06;;;10.29;86.48
73151;BME280;61354;50.758;6.106;2024-02-21T07:02:57;99438.63;;;10.15;86.88
73151;BME280;61354;50.758;6.106;2024-02-21T07:05:42;99434.47;;;10.46;85.92
73151;BME280;61354;50.758;6.106;2024-02-21T07:08:26;99447.53;;;9.72;86.97
73151;BME280;61354;50.758;6.106;2024-02-21T07:11:10;99461.19;;;10.14;86.42
73151;BME280;61354;50.758;6.106;2024-02-21T07:13:54;99455.75;;;10.17;86.73
73151;BME280;61354;50.758;6.106;2024-02-21T07:16:38;99460.16;;;10.43;84.75
73151;BME280;61354;50.758;6.106;2024-02-21T07:19:22;99455.50;;;10.23;85.43
73151;BME280;61354;50.758;6.106;2024-02-21T07:22:06;99447.78;;;10.04;83.66
73151;BME280;61354;50.758;6.106;2024-02-21T07:24:50;99455.28;;;10.03;83.14
73151;BME280;61354;50.758;6.106;2024-02-21T07:27:34;99456.69;;;10.34;81.35
73151;BME280;61354;50.758;6.106;2024-02-21T07:30:18;99446.97;;;10.28;80.34
73151;BME280;61354;50.758;6.106;2024-02-21T07:33:02;99441.41;;;10.28;80.15
73151;BME280;61354;50.758;6.106;2024-02-21T07:35:46;99442.31;;;10.19;80.47
73151;BME280;61354;50.758;6.106;2024-02-21T07:38:30;99437.94;;;10.06;80.27
73151;BME280;61354;50.758;6.106;2024-02-21T07:41:14;99440.94;;;9.89;79.72
73151;BME280;61354;50.758;6.106;2024-02-21T07:43:58;99440.28;;;10.41;79.02
73151;BME280;61354;50.758;6.106;2024-02-21T07:46:42;99432.88;;;10.33;79.75
73151;BME280;61354;50.758;6.106;2024-02-21T07:49:26;99427.03;;;10.62;78.88
73151;BME280;61354;50.758;6.106;2024-02-21T07:52:09;99431.13;;;10.28;78.93
73151;BME280;61354;50.758;6.106;2024-02-21T07:54:53;99413.22;;;10.38;79.90
73151;BME280;61354;50.758;6.106;2024-02-21T07:57:37;99413.50;;;10.49;79.06
73151;BME280;61354;50.758;6.106;2024-02-21T08:00:21;99411.75;;;10.56;78.94
73151;BME280;61354;50.758;6.106;2024-02-21T08:03:06;99413.91;;;10.35;79.19
73151;BME280;61354;50.758;6.106;2024-02-21T08:05:50;99400.44;;;10.49;78.40
73151;BME280;61354;50.758;6.106;2024-02-21T08:08:34;99386.84;;;9.95;78.67
73151;BME280;61354;50.758;6.106;2024-02-21T08:11:18;99386.84;;;10.32;77.95
73151;BME280;61354;50.758;6.106;2024-02-21T08:14:02;99384.31;;;10.27;78.68
73151;BME280;61354;50.758;6.106;2024-02-21T08:16:47;99372.19;;;10.59;76.59
73151;BME280;61354;50.758;6.106;2024-02-21T08:19:31;99362.81;;;10.64;77.15
73151;BME280;61354;50.758;6.106;2024-02-21T08:22:15;99354.06;;;10.50;75.36
73151;BME280;61354;50.758;6.106;2024-02-21T08:24:59;99342.50;;;10.76;76.03
73151;BME280;61354;50.758;6.106;2024-02-21T08:27:43;99341.16;;;10.29;76.09
73151;BME280;61354;50.758;6.106;2024-02-21T08:30:29;99343.16;;;10.04;77.00
73151;BME280;61354;50.758;6.106;2024-02-21T08:33:15;99339.53;;;10.16;76.73
73151;BME280;61354;50.758;6.106;2024-02-21T08:36:00;99329.13;;;10.37;76.24
73151;BME280;61354;50.758;6.106;2024-02-21T08:38:44;99327.59;;;10.68;76.37
73151;BME280;61354;50.758;6.106;2024-02-21T08:41:30;99327.00;;;10.75;75.75
73151;BME280;61354;50.758;6.106;2024-02-21T08:44:14;99312.41;;;10.09;76.13
73151;BME280;61354;50.758;6.106;2024-02-21T08:46:58;99313.16;;;10.34;76.69
73151;BME280;61354;50.758;6.106;2024-02-21T08:49:42;99300.47;;;10.77;75.68
73151;BME280;61354;50.758;6.106;2024-02-21T08:52:26;99294.69;;;10.54;75.86
73151;BME280;61354;50.758;6.106;2024-02-21T08:55:10;99282.63;;;10.62;75.06
73151;BME280;61354;50.758;6.106;2024-02-21T08:57:54;99278.03;;;10.26;76.11
73151;BME280;61354;50.758;6.106;2024-02-21T09:00:38;99272.66;;;10.61;75.53
73151;BME280;61354;50.758;6.106;2024-02-21T09:03:22;99261.13;;;10.59;76.28
73151;BME280;61354;50.758;6.106;2024-02-21T09:06:07;99259.53;;;10.18;76.53
73151;BME280;61354;50.758;6.106;2024-02-21T09:08:50;99250.19;;;10.51;76.62
73151;BME280;61354;50.758;6.106;2024-02-21T09:11:34;99239.94;;;10.83;75.22
73151;BME280;61354;50.758;6.106;2024-02-21T09:14:18;99225.31;;;10.70;76.78
73151;BME280;61354;50.758;6.106;2024-02-21T09:17:02;99222.34;;;10.63;75.86
73151;BME280;61354;50.758;6.106;2024-02-21T09:19:47;99229.53;;;10.80;75.84
73151;BME280;61354;50.758;6.106;2024-02-21T09:22:32;99216.44;;;10.96;74.41
73151;BME280;61354;50.758;6.106;2024-02-21T09:25:18;99211.50;;;10.58;76.12
73151;BME280;61354;50.758;6.106;2024-02-21T09:28:02;99228.22;;;10.61;76.11
73151;BME280;61354;50.758;6.106;2024-02-21T09:30:47;99215.53;;;10.60;75.96
73151;BME280;61354;50.758;6.106;2024-02-21T09:33:31;99205.84;;;10.54;76.67
73151;BME280;61354;50.758;6.106;2024-02-21T09:36:15;99205.69;;;10.63;76.27
73151;BME280;61354;50.758;6.106;2024-02-21T09:38:59;99208.00;;;10.77;76.56
73151;BME280;61354;50.758;6.106;2024-02-21T09:41:49;99196.81;;;10.73;75.87
73151;BME280;61354;50.758;6.106;2024-02-21T09:44:37;99191.16;;;10.69;76.13
73151;BME280;61354;50.758;6.106;2024-02-21T09:47:24;99191.97;;;10.54;76.81
73151;BME280;61354;50.758;6.106;2024-02-21T09:50:15;99189.75;;;10.76;76.14
73151;BME280;61354;50.758;6.106;2024-02-21T09:53:00;99187.22;;;11.02;76.20
73151;BME280;61354;50.758;6.106;2024-02-21T09:55:46;99189.56;;;10.68;75.69
73151;BME280;61354;50.758;6.106;2024-02-21T09:58:31;99189.03;;;10.79;76.04
73151;BME280;61354;50.758;6.106;2024-02-21T10:01:15;99193.41;;;10.80;76.52
73151;BME280;61354;50.758;6.106;2024-02-21T10:04:00;99185.78;;;10.77;75.54
73151;BME280;61354;50.758;6.106;2024-02-21T10:06:46;99175.06;;;10.91;75.34
73151;BME280;61354;50.758;6.106;2024-02-21T10:09:31;99177.88;;;11.10;75.10
73151;BME280;61354;50.758;6.106;2024-02-21T10:12:15;99172.91;;;10.84;75.10
73151;BME280;61354;50.758;6.106;2024-02-21T10:15:03;99167.06;;;10.89;75.06
73151;BME280;61354;50.758;6.106;2024-02-21T10:17:48;99168.00;;;11.29;75.18
73151;BME280;61354;50.758;6.106;2024-02-21T10:20:32;99146.50;;;11.10;75.15
73151;BME280;61354;50.758;6.106;2024-02-21T10:23:17;99148.31;;;11.02;74.91
73151;BME280;61354;50.758;6.106;2024-02-21T10:26:05;99144.88;;;11.25;74.76
73151;BME280;61354;50.758;6.106;2024-02-21T10:28:49;99138.28;;;11.13;75.13
73151;BME280;61354;50.758;6.106;2024-02-21T10:31:36;99134.25;;;11.46;74.39
73151;BME280;61354;50.758;6.106;2024-02-21T10:34:19;99121.72;;;11.56;74.15
73151;BME280;61354;50.758;6.106;2024-02-21T10:37:08;99105.56;;;11.61;74.06
73151;BME280;61354;50.758;6.106;2024-02-21T10:39:53;99110.41;;;11.45;74.35
73151;BME280;61354;50.758;6.106;2024-02-21T10:42:37;99091.94;;;11.37;74.26
73151;BME280;61354;50.758;6.106;2024-02-21T10:45:35;99085.50;;;11.33;74.10
73151;BME280;61354;50.758;6.106;2024-02-21T10:48:25;99083.28;;;11.81;73.52
73151;BME280;61354;50.758;6.106;2024-02-21T10:51:16;99080.81;;;11.76;73.31
73151;BME280;61354;50.758;6.106;2024-02-21T10:57:08;99055.22;;;11.66;73.36
73151;BME280;61354;50.758;6.106;2024-02-21T10:59:55;99043.94;;;11.59;73.44
73151;BME280;61354;50.758;6.106;2024-02-21T11:02:39;99039.09;;;11.76;73.20
73151;BME280;61354;50.758;6.106;2024-02-21T11:05:24;99030.19;;;11.47;73.21
73151;BME280;61354;50.758;6.106;2024-02-21T11:08:09;99029.25;;;11.82;73.09
73151;BME280;61354;50.758;6.106;2024-02-21T11:10:57;99023.50;;;11.71;73.56
73151;BME280;61354;50.758;6.106;2024-02-21T11:13:44;99012.13;;;11.99;72.08
73151;BME280;61354;50.758;6.106;2024-02-21T11:16:35;98995.44;;;11.99;71.93
73151;BME280;61354;50.758;6.106;2024-02-21T11:19:24;98982.13;;;12.12;71.90
73151;BME280;61354;50.758;6.106;2024-02-21T11:22:19;98962.34;;;11.94;71.67
73151;BME280;61354;50.758;6.106;2024-02-21T11:25:07;98948.88;;;12.23;71.32
73151;BME280;61354;50.758;6.106;2024-02-21T11:28:03;98945.81;;;12.28;70.34
73151;BME280;61354;50.758;6.106;2024-02-21T11:30:48;98942.69;;;12.33;70.67
73151;BME280;61354;50.758;6.106;2024-02-21T11:33:35;98939.13;;;12.09;70.41
73151;BME280;61354;50.758;6.106;2024-02-21T11:36:26;98932.72;;;12.05;70.17
73151;BME280;61354;50.758;6.106;2024-02-21T11:39:10;98926.03;;;12.10;70.81
73151;BME280;61354;50.758;6.106;2024-02-21T11:42:20;98902.41;;;12.27;70.64
73151;BME280;61354;50.758;6.106;2024-02-21T11:45:04;98905.53;;;11.95;70.70
73151;BME280;61354;50.758;6.106;2024-02-21T11:47:49;98883.59;;;12.16;70.08
73151;BME280;61354;50.758;6.106;2024-02-21T11:50:34;98863.16;;;12.32;69.85
73151;BME280;61354;50.758;6.106;2024-02-21T11:53:20;98815.41;;;12.03;69.90
73151;BME280;61354;50.758;6.106;2024-02-21T11:56:04;98798.25;;;12.28;68.92
73151;BME280;61354;50.758;6.106;2024-02-21T11:58:49;98765.00;;;12.08;68.82
73151;BME280;61354;50.758;6.106;2024-02-21T12:01:33;98769.22;;;12.29;68.43
73151;BME280;61354;50.758;6.106;2024-02-21T12:04:18;98782.19;;;12.48;67.18
73151;BME280;61354;50.758;6.106;2024-02-21T12:07:03;98811.00;;;12.62;67.00
73151;BME280;61354;50.758;6.106;2024-02-21T12:09:51;98861.22;;;12.39;65.82
73151;BME280;61354;50.758;6.106;2024-02-21T12:12:35;98859.97;;;12.63;65.55
73151;BME280;61354;50.758;6.106;2024-02-21T12:15:21;98845.16;;;12.56;64.75
73151;BME280;61354;50.758;6.106;2024-02-21T12:18:05;98832.34;;;12.51;64.17
73151;BME280;61354;50.758;6.106;2024-02-21T12:20:49;98830.41;;;12.89;65.14
73151;BME280;61354;50.758;6.106;2024-02-21T12:23:33;98808.50;;;12.87;64.54
73151;BME280;61354;50.758;6.106;2024-02-21T12:26:17;98812.81;;;13.18;63.87
73151;BME280;61354;50.758;6.106;2024-02-21T12:29:01;98809.47;;;13.43;62.87
73151;BME280;61354;50.758;6.106;2024-02-21T12:31:45;98799.88;;;13.00;62.78
73151;BME280;61354;50.758;6.106;2024-02-21T12:34:29;98808.69;;;13.42;62.83
73151;BME280;61354;50.758;6.106;2024-02-21T12:37:15;98802.59;;;13.30;62.27
73151;BME280;61354;50.758;6.106;2024-02-21T12:39:59;98805.69;;;12.84;63.69
73151;BME280;61354;50.758;6.106;2024-02-21T12:42:43;98792.84;;;13.13;64.21
73151;BME280;61354;50.758;6.106;2024-02-21T12:45:29;98784.22;;;12.88;62.85
73151;BME280;61354;50.758;6.106;2024-02-21T12:48:13;98797.59;;;12.72;63.76
73151;BME280;61354;50.758;6.106;2024-02-21T12:50:57;98772.53;;;13.12;62.84
73151;BME280;61354;50.758;6.106;2024-02-21T12:53:42;98760.06;;;13.43;62.71
73151;BME280;61354;50.758;6.106;2024-02-21T12:56:26;98758.31;;;13.69;61.92
73151;BME280;61354;50.758;6.106;2024-02-21T12:59:11;98751.50;;;13.66;61.43
73151;BME280;61354;50.758;6.106;2024-02-21T13:01:55;98756.22;;;13.59;60.09
73151;BME280;61354;50.758;6.106;2024-02-21T13:04:39;98749.88;;;13.17;60.54
73151;BME280;61354;50.758;6.106;2024-02-21T13:07:25;98756.41;;;12.91;61.25
73151;BME280;61354;50.758;6.106;2024-02-21T13:10:09;98750.22;;;13.53;60.80
73151;BME280;61354;50.758;6.106;2024-02-21T13:12:52;98742.41;;;13.25;60.90
73151;BME280;61354;50.758;6.106;2024-02-21T13:15:36;98740.06;;;13.27;61.07
73151;BME280;61354;50.758;6.106;2024-02-21T13:18:26;98727.25;;;13.23;61.46
73151;BME280;61354;50.758;6.106;2024-02-21T13:21:10;98730.97;;;13.37;61.85
73151;BME280;61354;50.758;6.106;2024-02-21T13:23:54;98733.28;;;13.28;61.87
73151;BME280;61354;50.758;6.106;2024-02-21T13:26:38;98737.53;;;13.15;61.81
73151;BME280;61354;50.758;6.106;2024-02-21T13:29:22;98717.09;;;13.48;61.20
73151;BME280;61354;50.758;6.106;2024-02-21T13:32:06;98704.59;;;13.28;62.06
73151;BME280;61354;50.758;6.106;2024-02-21T13:34:51;98712.16;;;13.31;62.02
73151;BME280;61354;50.758;6.106;2024-02-21T13:37:35;98713.44;;;13.37;61.62
73151;BME280;61354;50.758;6.106;2024-02-21T13:40:20;98688.34;;;13.40;61.66
73151;BME280;61354;50.758;6.106;2024-02-21T13:43:04;98680.56;;;13.16;61.56
73151;BME280;61354;50.758;6.106;2024-02-21T13:46:00;98680.16;;;13.14;62.06
73151;BME280;61354;50.758;6.106;2024-02-21T13:48:44;98667.25;;;12.95;61.12
73151;BME280;61354;50.758;6.106;2024-02-21T13:51:28;98656.13;;;12.95;62.10
73151;BME280;61354;50.758;6.106;2024-02-21T13:54:12;98670.94;;;13.06;61.69
73151;BME280;61354;50.758;6.106;2024-02-21T13:57:00;98664.13;;;13.00;61.51
73151;BME280;61354;50.758;6.106;2024-02-21T13:59:45;98642.50;;;12.86;61.38
73151;BME280;61354;50.758;6.106;2024-02-21T14:02:29;98643.31;;;12.87;61.11
73151;BME280;61354;50.758;6.106;2024-02-21T14:05:13;98636.47;;;12.81;60.27
73151;BME280;61354;50.758;6.106;2024-02-21T14:07:58;98644.00;;;12.73;59.98
73151;BME280;61354;50.758;6.106;2024-02-21T14:10:42;98635.75;;;12.87;60.34
73151;BME280;61354;50.758;6.106;2024-02-21T14:13:26;98621.28;;;12.71;59.66
73151;BME280;61354;50.758;6.106;2024-02-21T14:16:10;98606.03;;;13.09;59.37
73151;BME280;61354;50.758;6.106;2024-02-21T14:18:56;98618.06;;;13.21;58.84
73151;BME280;61354;50.758;6.106;2024-02-21T14:21:40;98602.19;;;13.25;58.72
73151;BME280;61354;50.758;6.106;2024-02-21T14:24:24;98596.31;;;13.40;58.21
73151;BME280;61354;50.758;6.106;2024-02-21T14:27:08;98594.91;;;13.13;58.16
73151;BME280;61354;50.758;6.106;2024-02-21T14:29:52;98586.75;;;12.83;57.76
73151;BME280;61354;50.758;6.106;2024-02-21T14:32:38;98573.34;;;12.99;56.96
73151;BME280;61354;50.758;6.106;2024-02-21T14:35:22;98558.84;;;12.76;56.54
73151;BME280;61354;50.758;6.106;2024-02-21T14:38:06;98549.72;;;12.79;56.55
73151;BME280;61354;50.758;6.106;2024-02-21T14:40:49;98543.00;;;12.87;56.54